MY1985 LTFJ-LBSF
Flight info
| Callsign | MY1985 |
|---|---|
| Flight time | 1h 3m |
| Altitude | 38000 |
| Route | VADEN1J/06L VADEN DCT BAKLO DCT XANEX N605 GOL |
| Aircraft | A320/M-SDE3FGHIRWY/LB1 |
Departure
| Time | 2026-04-30 20:47 |
|---|---|
| Airport | Istanbul Sabiha Gökçen International Airport (LTFJ) |
Arrival
| Time | 2026-04-30 21:50 |
|---|---|
| Airport | Sofia Airport (LBSF) |
| Time | Latitude | Longitude | Altitude | Speed | Heading |
|---|---|---|---|---|---|
| 2026-04-30 20:21 | 40.90543 | 29.31453 | 311 ft | 0 kts | 334° |
| 2026-04-30 20:33 | 40.90529 | 29.31463 | 310 ft | 2 kts | 334° |
| 2026-04-30 20:33 | 40.90514 | 29.31472 | 310 ft | 2 kts | 333° |
| 2026-04-30 20:34 | 40.90490 | 29.31490 | 311 ft | 2 kts | 326° |
| 2026-04-30 20:34 | 40.90479 | 29.31515 | 310 ft | 0 kts | 250° |
| 2026-04-30 20:39 | 40.90479 | 29.31514 | 311 ft | 0 kts | 250° |
| 2026-04-30 20:39 | 40.90466 | 29.31477 | 311 ft | 2 kts | 246° |
| 2026-04-30 20:40 | 40.90391 | 29.31449 | 311 ft | 9 kts | 155° |
| 2026-04-30 20:40 | 40.90338 | 29.31484 | 311 ft | 8 kts | 153° |
| 2026-04-30 20:40 | 40.90323 | 29.31494 | 311 ft | 4 kts | 154° |
| 2026-04-30 20:41 | 40.90213 | 29.31326 | 311 ft | 16 kts | 243° |
| 2026-04-30 20:41 | 40.90166 | 29.31187 | 310 ft | 18 kts | 242° |
| 2026-04-30 20:41 | 40.90112 | 29.31048 | 311 ft | 11 kts | 250° |
| 2026-04-30 20:41 | 40.90075 | 29.30950 | 310 ft | 12 kts | 244° |
| 2026-04-30 20:42 | 40.90036 | 29.30842 | 310 ft | 14 kts | 244° |
| 2026-04-30 20:42 | 40.89975 | 29.30675 | 310 ft | 24 kts | 244° |
| 2026-04-30 20:42 | 40.89810 | 29.30229 | 309 ft | 30 kts | 244° |
| 2026-04-30 20:43 | 40.89712 | 29.29970 | 308 ft | 33 kts | 242° |
| 2026-04-30 20:43 | 40.89611 | 29.29684 | 304 ft | 36 kts | 244° |
| 2026-04-30 20:43 | 40.89514 | 29.29423 | 302 ft | 15 kts | 246° |
| 2026-04-30 20:44 | 40.89475 | 29.29320 | 304 ft | 0 kts | 243° |
| 2026-04-30 20:44 | 40.89471 | 29.29308 | 304 ft | 3 kts | 243° |
| 2026-04-30 20:44 | 40.89407 | 29.29256 | 303 ft | 7 kts | 176° |
| 2026-04-30 20:45 | 40.89362 | 29.29276 | 304 ft | 0 kts | 154° |
| 2026-04-30 20:45 | 40.89327 | 29.29299 | 301 ft | 10 kts | 152° |
| 2026-04-30 20:46 | 40.89442 | 29.29797 | 307 ft | 66 kts | 65° |
| 2026-04-30 20:46 | 40.89742 | 29.30579 | 312 ft | 121 kts | 59° |
| 2026-04-30 20:47 | 40.90630 | 29.32806 | 1241 ft | 141 kts | 63° |
| 2026-04-30 20:47 | 40.91043 | 29.33987 | 1889 ft | 141 kts | 62° |
| 2026-04-30 20:48 | 40.91992 | 29.36622 | 2538 ft | 181 kts | 63° |
| 2026-04-30 20:48 | 40.92575 | 29.38227 | 2832 ft | 206 kts | 63° |
| 2026-04-30 20:48 | 40.93230 | 29.40030 | 3263 ft | 229 kts | 63° |
| 2026-04-30 20:48 | 40.93946 | 29.41995 | 3971 ft | 241 kts | 63° |
| 2026-04-30 20:49 | 40.94695 | 29.44050 | 4683 ft | 257 kts | 64° |
| 2026-04-30 20:49 | 40.95489 | 29.46230 | 5413 ft | 269 kts | 64° |
| 2026-04-30 20:49 | 40.96316 | 29.48509 | 6180 ft | 280 kts | 64° |
| 2026-04-30 20:50 | 40.98064 | 29.53303 | 6965 ft | 294 kts | 64° |
| 2026-04-30 20:50 | 40.98957 | 29.55742 | 7012 ft | 295 kts | 64° |
| 2026-04-30 20:50 | 40.99891 | 29.58150 | 7019 ft | 294 kts | 56° |
| 2026-04-30 20:50 | 41.01329 | 29.60036 | 7020 ft | 291 kts | 29° |
| 2026-04-30 20:51 | 41.03203 | 29.60942 | 7121 ft | 290 kts | 2° |
| 2026-04-30 20:51 | 41.07095 | 29.60040 | 8853 ft | 289 kts | 339° |
| 2026-04-30 20:51 | 41.09047 | 29.59316 | 9702 ft | 294 kts | 339° |
| 2026-04-30 20:52 | 41.11040 | 29.58563 | 10340 ft | 306 kts | 338° |
| 2026-04-30 20:52 | 41.13193 | 29.57736 | 10612 ft | 330 kts | 339° |
| 2026-04-30 20:52 | 41.17784 | 29.55977 | 11567 ft | 354 kts | 339° |
| 2026-04-30 20:53 | 41.20172 | 29.55077 | 12261 ft | 359 kts | 339° |
| 2026-04-30 20:53 | 41.22591 | 29.54166 | 12962 ft | 363 kts | 339° |
| 2026-04-30 20:53 | 41.25049 | 29.53281 | 13676 ft | 368 kts | 341° |
| 2026-04-30 20:54 | 41.30124 | 29.51812 | 14968 ft | 377 kts | 343° |
| 2026-04-30 20:54 | 41.32707 | 29.51140 | 15598 ft | 380 kts | 343° |
| 2026-04-30 20:54 | 41.35315 | 29.50458 | 16219 ft | 383 kts | 342° |
| 2026-04-30 20:55 | 41.40455 | 29.48634 | 17451 ft | 381 kts | 332° |
| 2026-04-30 20:55 | 41.42938 | 29.47362 | 18095 ft | 384 kts | 332° |
| 2026-04-30 20:55 | 41.45440 | 29.46072 | 18712 ft | 386 kts | 332° |
| 2026-04-30 20:56 | 41.50483 | 29.43471 | 19849 ft | 392 kts | 332° |
| 2026-04-30 20:56 | 41.53037 | 29.42159 | 20409 ft | 394 kts | 332° |
| 2026-04-30 20:56 | 41.58195 | 29.39506 | 21490 ft | 399 kts | 330° |
| 2026-04-30 20:57 | 41.60599 | 29.37747 | 21980 ft | 391 kts | 317° |
| 2026-04-30 20:57 | 41.62599 | 29.35339 | 22470 ft | 384 kts | 305° |
| 2026-04-30 20:57 | 41.64115 | 29.32435 | 22973 ft | 379 kts | 293° |
| 2026-04-30 20:58 | 41.65569 | 29.25781 | 23914 ft | 373 kts | 270° |
| 2026-04-30 20:58 | 41.65665 | 29.22310 | 24351 ft | 374 kts | 269° |
| 2026-04-30 20:58 | 41.65746 | 29.18875 | 24790 ft | 375 kts | 269° |
| 2026-04-30 20:58 | 41.65824 | 29.15378 | 25231 ft | 377 kts | 269° |
| 2026-04-30 20:59 | 41.65986 | 29.08354 | 26095 ft | 379 kts | 269° |
| 2026-04-30 20:59 | 41.66071 | 29.04822 | 26528 ft | 381 kts | 269° |
| 2026-04-30 21:00 | 41.66234 | 28.97721 | 27403 ft | 383 kts | 269° |
| 2026-04-30 21:00 | 41.66389 | 28.90562 | 28275 ft | 386 kts | 269° |
| 2026-04-30 21:01 | 41.66539 | 28.83360 | 29106 ft | 389 kts | 269° |
| 2026-04-30 21:01 | 41.66614 | 28.79739 | 29512 ft | 390 kts | 269° |
| 2026-04-30 21:01 | 41.66767 | 28.72474 | 30462 ft | 389 kts | 269° |
| 2026-04-30 21:02 | 41.66842 | 28.68867 | 30989 ft | 386 kts | 269° |
| 2026-04-30 21:02 | 41.66913 | 28.65283 | 31495 ft | 384 kts | 269° |
| 2026-04-30 21:02 | 41.66979 | 28.61718 | 31998 ft | 382 kts | 269° |
| 2026-04-30 21:02 | 41.67036 | 28.58173 | 32490 ft | 381 kts | 269° |
| 2026-04-30 21:03 | 41.67083 | 28.54639 | 32984 ft | 379 kts | 269° |
| 2026-04-30 21:03 | 41.67121 | 28.51121 | 33486 ft | 377 kts | 269° |
| 2026-04-30 21:03 | 41.67154 | 28.47625 | 33992 ft | 376 kts | 269° |
| 2026-04-30 21:03 | 41.67187 | 28.44136 | 34432 ft | 375 kts | 269° |
| 2026-04-30 21:04 | 41.67222 | 28.40651 | 34780 ft | 375 kts | 269° |
| 2026-04-30 21:04 | 41.67258 | 28.37161 | 35092 ft | 376 kts | 269° |
| 2026-04-30 21:04 | 41.67330 | 28.30143 | 35693 ft | 378 kts | 269° |
| 2026-04-30 21:05 | 41.67363 | 28.26659 | 35977 ft | 379 kts | 269° |
| 2026-04-30 21:05 | 41.67394 | 28.23131 | 36265 ft | 380 kts | 269° |
| 2026-04-30 21:05 | 41.67427 | 28.19588 | 36554 ft | 381 kts | 270° |
| 2026-04-30 21:05 | 41.67459 | 28.16039 | 36846 ft | 382 kts | 270° |
| 2026-04-30 21:06 | 41.67487 | 28.12485 | 37119 ft | 383 kts | 270° |
| 2026-04-30 21:06 | 41.67514 | 28.08919 | 37380 ft | 384 kts | 270° |
| 2026-04-30 21:06 | 41.67742 | 28.05354 | 37654 ft | 385 kts | 279° |
| 2026-04-30 21:06 | 41.68485 | 28.01900 | 37929 ft | 389 kts | 289° |
| 2026-04-30 21:07 | 41.69723 | 27.98659 | 38120 ft | 394 kts | 298° |
| 2026-04-30 21:07 | 41.71222 | 27.95553 | 38160 ft | 398 kts | 298° |
| 2026-04-30 21:07 | 41.74244 | 27.89311 | 38162 ft | 400 kts | 298° |
| 2026-04-30 21:08 | 41.77276 | 27.83041 | 38171 ft | 401 kts | 298° |
| 2026-04-30 21:08 | 41.80297 | 27.76762 | 38171 ft | 402 kts | 298° |
| 2026-04-30 21:09 | 41.83323 | 27.70455 | 38172 ft | 402 kts | 298° |
| 2026-04-30 21:09 | 41.86349 | 27.64137 | 38180 ft | 403 kts | 298° |
| 2026-04-30 21:10 | 41.89378 | 27.57801 | 38176 ft | 404 kts | 298° |
| 2026-04-30 21:10 | 41.92414 | 27.51438 | 38174 ft | 405 kts | 298° |
| 2026-04-30 21:11 | 41.95433 | 27.45097 | 38179 ft | 406 kts | 298° |
| 2026-04-30 21:11 | 41.98479 | 27.38689 | 38179 ft | 408 kts | 298° |
| 2026-04-30 21:12 | 42.01535 | 27.32238 | 38192 ft | 409 kts | 298° |
| 2026-04-30 21:12 | 42.04596 | 27.25763 | 38200 ft | 411 kts | 298° |
| 2026-04-30 21:13 | 42.07947 | 27.19510 | 38205 ft | 417 kts | 307° |
| 2026-04-30 21:13 | 42.11831 | 27.13703 | 38216 ft | 418 kts | 308° |
| 2026-04-30 21:14 | 42.15717 | 27.07867 | 38225 ft | 418 kts | 307° |
| 2026-04-30 21:14 | 42.19594 | 27.02007 | 38238 ft | 419 kts | 307° |
| 2026-04-30 21:15 | 42.23472 | 26.96153 | 38249 ft | 419 kts | 308° |
| 2026-04-30 21:15 | 42.27358 | 26.90290 | 38256 ft | 418 kts | 308° |
| 2026-04-30 21:16 | 42.31202 | 26.84463 | 38262 ft | 418 kts | 308° |
| 2026-04-30 21:16 | 42.35064 | 26.78588 | 38254 ft | 418 kts | 308° |
| 2026-04-30 21:17 | 42.38925 | 26.72709 | 38263 ft | 418 kts | 308° |
| 2026-04-30 21:17 | 42.42793 | 26.66820 | 38256 ft | 418 kts | 308° |
| 2026-04-30 21:18 | 42.46649 | 26.60932 | 38272 ft | 418 kts | 308° |
| 2026-04-30 21:18 | 42.50503 | 26.55022 | 38271 ft | 418 kts | 308° |
| 2026-04-30 21:19 | 42.54249 | 26.49006 | 38276 ft | 416 kts | 301° |
| 2026-04-30 21:19 | 42.56604 | 26.43357 | 38154 ft | 414 kts | 295° |
| 2026-04-30 21:20 | 42.57964 | 26.39922 | 37878 ft | 413 kts | 295° |
| 2026-04-30 21:20 | 42.59322 | 26.36497 | 37613 ft | 412 kts | 295° |
| 2026-04-30 21:20 | 42.60677 | 26.33076 | 37363 ft | 410 kts | 295° |
| 2026-04-30 21:20 | 42.62461 | 26.28560 | 37026 ft | 409 kts | 295° |
| 2026-04-30 21:21 | 42.63364 | 26.26268 | 36856 ft | 408 kts | 294° |
| 2026-04-30 21:21 | 42.64699 | 26.22875 | 36605 ft | 406 kts | 294° |
| 2026-04-30 21:21 | 42.67353 | 26.16116 | 36116 ft | 404 kts | 294° |
| 2026-04-30 21:22 | 42.68673 | 26.12746 | 35867 ft | 403 kts | 294° |
| 2026-04-30 21:22 | 42.72581 | 26.02724 | 35168 ft | 401 kts | 293° |
| 2026-04-30 21:23 | 42.73888 | 25.99373 | 34938 ft | 400 kts | 293° |
| 2026-04-30 21:23 | 42.75194 | 25.96026 | 34708 ft | 400 kts | 293° |
| 2026-04-30 21:23 | 42.77793 | 25.89347 | 34244 ft | 399 kts | 292° |
| 2026-04-30 21:24 | 42.79090 | 25.86007 | 33976 ft | 399 kts | 292° |
| 2026-04-30 21:24 | 42.80388 | 25.82663 | 33707 ft | 400 kts | 292° |
| 2026-04-30 21:24 | 42.81688 | 25.79316 | 33442 ft | 400 kts | 292° |
| 2026-04-30 21:24 | 42.82991 | 25.75959 | 33190 ft | 401 kts | 292° |
| 2026-04-30 21:25 | 42.85598 | 25.69211 | 32667 ft | 403 kts | 292° |
| 2026-04-30 21:25 | 42.86906 | 25.65828 | 32410 ft | 404 kts | 292° |
| 2026-04-30 21:25 | 42.88216 | 25.62433 | 32164 ft | 404 kts | 292° |
| 2026-04-30 21:26 | 42.90827 | 25.55629 | 31666 ft | 406 kts | 292° |
| 2026-04-30 21:26 | 42.92135 | 25.52213 | 31421 ft | 406 kts | 292° |
| 2026-04-30 21:27 | 42.94756 | 25.45371 | 30935 ft | 406 kts | 292° |
| 2026-04-30 21:27 | 42.96068 | 25.41956 | 30693 ft | 405 kts | 292° |
| 2026-04-30 21:27 | 42.97370 | 25.38556 | 30454 ft | 403 kts | 292° |
| 2026-04-30 21:28 | 42.99955 | 25.31784 | 29894 ft | 400 kts | 292° |
| 2026-04-30 21:28 | 43.01222 | 25.28458 | 29613 ft | 399 kts | 292° |
| 2026-04-30 21:28 | 43.03774 | 25.21742 | 29061 ft | 397 kts | 293° |
| 2026-04-30 21:29 | 43.05040 | 25.18396 | 28785 ft | 396 kts | 293° |
| 2026-04-30 21:29 | 43.08818 | 25.08393 | 27981 ft | 393 kts | 293° |
| 2026-04-30 21:30 | 43.11269 | 25.01729 | 27450 ft | 389 kts | 289° |
| 2026-04-30 21:31 | 43.12436 | 24.90977 | 26679 ft | 382 kts | 266° |
| 2026-04-30 21:31 | 43.12134 | 24.83724 | 26166 ft | 381 kts | 266° |
| 2026-04-30 21:32 | 43.11852 | 24.76489 | 25676 ft | 380 kts | 267° |
| 2026-04-30 21:32 | 43.11710 | 24.72884 | 25430 ft | 380 kts | 267° |
| 2026-04-30 21:32 | 43.11562 | 24.69279 | 25181 ft | 379 kts | 267° |
| 2026-04-30 21:32 | 43.11414 | 24.65676 | 24940 ft | 379 kts | 267° |
| 2026-04-30 21:33 | 43.11263 | 24.62085 | 24701 ft | 378 kts | 267° |
| 2026-04-30 21:33 | 43.10959 | 24.54901 | 24227 ft | 378 kts | 267° |
| 2026-04-30 21:33 | 43.10806 | 24.51316 | 23990 ft | 377 kts | 267° |
| 2026-04-30 21:34 | 43.10651 | 24.47738 | 23730 ft | 377 kts | 267° |
| 2026-04-30 21:34 | 43.10336 | 24.40601 | 23163 ft | 375 kts | 267° |
| 2026-04-30 21:34 | 43.10179 | 24.37051 | 22885 ft | 374 kts | 267° |
| 2026-04-30 21:35 | 43.10019 | 24.33509 | 22613 ft | 373 kts | 267° |
| 2026-04-30 21:35 | 43.09859 | 24.29970 | 22342 ft | 371 kts | 267° |
| 2026-04-30 21:35 | 43.09671 | 24.26455 | 22069 ft | 371 kts | 264° |
| 2026-04-30 21:35 | 43.09085 | 24.23018 | 21802 ft | 372 kts | 252° |
| 2026-04-30 21:36 | 43.08006 | 24.19805 | 21537 ft | 374 kts | 242° |
| 2026-04-30 21:36 | 43.06490 | 24.16914 | 21271 ft | 375 kts | 234° |
| 2026-04-30 21:37 | 43.01629 | 24.08684 | 20085 ft | 365 kts | 234° |
| 2026-04-30 21:37 | 43.00042 | 24.05989 | 19582 ft | 362 kts | 234° |
| 2026-04-30 21:37 | 42.98468 | 24.03316 | 19062 ft | 360 kts | 234° |
| 2026-04-30 21:37 | 42.96905 | 24.00659 | 18541 ft | 358 kts | 234° |
| 2026-04-30 21:38 | 42.95370 | 23.98054 | 17962 ft | 355 kts | 234° |
| 2026-04-30 21:38 | 42.93808 | 23.95412 | 17431 ft | 352 kts | 234° |
| 2026-04-30 21:38 | 42.92287 | 23.92852 | 16904 ft | 350 kts | 234° |
| 2026-04-30 21:38 | 42.90761 | 23.90283 | 16369 ft | 348 kts | 234° |
| 2026-04-30 21:39 | 42.89241 | 23.87723 | 15844 ft | 346 kts | 233° |
| 2026-04-30 21:39 | 42.87736 | 23.85183 | 15516 ft | 340 kts | 233° |
| 2026-04-30 21:39 | 42.86272 | 23.82734 | 15434 ft | 327 kts | 232° |
| 2026-04-30 21:39 | 42.84614 | 23.80681 | 15311 ft | 320 kts | 217° |
| 2026-04-30 21:40 | 42.82668 | 23.79273 | 15159 ft | 314 kts | 202° |
| 2026-04-30 21:40 | 42.80565 | 23.78580 | 14995 ft | 309 kts | 187° |
| 2026-04-30 21:40 | 42.78606 | 23.78648 | 14857 ft | 302 kts | 167° |
| 2026-04-30 21:40 | 42.76776 | 23.79822 | 14697 ft | 285 kts | 137° |
| 2026-04-30 21:41 | 42.75636 | 23.81934 | 14269 ft | 277 kts | 106° |
| 2026-04-30 21:41 | 42.75326 | 23.84515 | 13797 ft | 279 kts | 92° |
| 2026-04-30 21:41 | 42.75168 | 23.87125 | 13350 ft | 274 kts | 91° |
| 2026-04-30 21:41 | 42.75014 | 23.89687 | 12928 ft | 268 kts | 91° |
| 2026-04-30 21:42 | 42.74860 | 23.92191 | 12515 ft | 263 kts | 91° |
| 2026-04-30 21:42 | 42.74650 | 23.94637 | 12102 ft | 259 kts | 103° |
| 2026-04-30 21:42 | 42.73760 | 23.96728 | 11701 ft | 259 kts | 136° |
| 2026-04-30 21:42 | 42.72191 | 23.97857 | 11267 ft | 257 kts | 170° |
| 2026-04-30 21:43 | 42.70425 | 23.97812 | 10840 ft | 253 kts | 187° |
| 2026-04-30 21:43 | 42.68704 | 23.97406 | 10406 ft | 250 kts | 202° |
| 2026-04-30 21:43 | 42.67290 | 23.96118 | 9906 ft | 246 kts | 232° |
| 2026-04-30 21:43 | 42.66533 | 23.94070 | 9316 ft | 242 kts | 263° |
| 2026-04-30 21:44 | 42.66524 | 23.91875 | 8911 ft | 232 kts | 279° |
| 2026-04-30 21:44 | 42.66669 | 23.89693 | 8547 ft | 231 kts | 279° |
| 2026-04-30 21:44 | 42.66810 | 23.87517 | 8194 ft | 231 kts | 279° |
| 2026-04-30 21:44 | 42.66951 | 23.85309 | 7873 ft | 233 kts | 279° |
| 2026-04-30 21:45 | 42.67088 | 23.83157 | 7553 ft | 232 kts | 280° |
| 2026-04-30 21:45 | 42.67227 | 23.80964 | 7228 ft | 233 kts | 280° |
| 2026-04-30 21:45 | 42.67373 | 23.78717 | 6673 ft | 245 kts | 281° |
| 2026-04-30 21:45 | 42.67507 | 23.76616 | 6490 ft | 237 kts | 280° |
| 2026-04-30 21:46 | 42.67636 | 23.74396 | 6206 ft | 235 kts | 279° |
| 2026-04-30 21:46 | 42.67761 | 23.72179 | 5893 ft | 236 kts | 278° |
| 2026-04-30 21:46 | 42.67889 | 23.69950 | 5594 ft | 236 kts | 279° |
| 2026-04-30 21:46 | 42.68037 | 23.67754 | 5365 ft | 231 kts | 278° |
| 2026-04-30 21:47 | 42.68178 | 23.65588 | 5072 ft | 230 kts | 278° |
| 2026-04-30 21:47 | 42.68314 | 23.63420 | 4751 ft | 230 kts | 278° |
| 2026-04-30 21:47 | 42.68449 | 23.61257 | 4420 ft | 228 kts | 277° |
| 2026-04-30 21:47 | 42.68579 | 23.59138 | 4124 ft | 221 kts | 277° |
| 2026-04-30 21:48 | 42.68706 | 23.57088 | 3792 ft | 214 kts | 277° |
| 2026-04-30 21:48 | 42.68826 | 23.55131 | 3511 ft | 201 kts | 277° |
| 2026-04-30 21:48 | 42.68938 | 23.53313 | 3193 ft | 184 kts | 277° |
| 2026-04-30 21:48 | 42.69039 | 23.51663 | 2928 ft | 165 kts | 277° |
| 2026-04-30 21:49 | 42.69129 | 23.50188 | 2668 ft | 149 kts | 278° |
| 2026-04-30 21:49 | 42.69213 | 23.48822 | 2474 ft | 142 kts | 278° |
| 2026-04-30 21:49 | 42.69294 | 23.47502 | 2303 ft | 139 kts | 278° |
| 2026-04-30 21:49 | 42.69373 | 23.46194 | 2130 ft | 139 kts | 278° |
| 2026-04-30 21:50 | 42.69455 | 23.44900 | 1959 ft | 139 kts | 278° |
| 2026-04-30 21:50 | 42.69534 | 23.43588 | 1766 ft | 138 kts | 278° |
| 2026-04-30 21:50 | 42.69610 | 23.42472 | 1745 ft | 95 kts | 274° |
| 2026-04-30 21:50 | 42.69632 | 23.41817 | 1754 ft | 48 kts | 269° |
| 2026-04-30 21:51 | 42.69596 | 23.41596 | 1749 ft | 3 kts | 246° |
| 2026-04-30 21:51 | 42.69576 | 23.41542 | 1747 ft | 2 kts | 243° |
| 2026-04-30 21:51 | 42.69573 | 23.41533 | 1748 ft | 0 kts | 243° |
| 2026-04-30 21:52 | 42.69571 | 23.41528 | 1753 ft | 3 kts | 243° |
| 2026-04-30 21:53 | 42.69567 | 23.41517 | 1746 ft | 3 kts | 243° |
| 2026-04-30 21:53 | 42.69548 | 23.41487 | 1750 ft | 1 kts | 219° |
| 2026-04-30 21:53 | 42.69530 | 23.41476 | 1745 ft | 5 kts | 196° |
| 2026-04-30 21:53 | 42.69514 | 23.41474 | 1751 ft | 2 kts | 181° |
| 2026-04-30 21:54 | 42.69507 | 23.41475 | 1751 ft | 4 kts | 174° |
| 2026-04-30 21:54 | 42.69477 | 23.41456 | 1753 ft | 5 kts | 245° |
| 2026-04-30 21:54 | 42.69475 | 23.41420 | 1753 ft | 8 kts | 272° |
| 2026-04-30 21:54 | 42.69479 | 23.41364 | 1750 ft | 13 kts | 277° |
| 2026-04-30 21:55 | 42.69482 | 23.41327 | 1748 ft | 6 kts | 277° |
| 2026-04-30 21:55 | 42.69476 | 23.41246 | 1748 ft | 10 kts | 240° |
| 2026-04-30 21:55 | 42.69405 | 23.41202 | 1753 ft | 13 kts | 193° |
| 2026-04-30 21:55 | 42.69324 | 23.41179 | 1753 ft | 13 kts | 191° |
| 2026-04-30 21:56 | 42.69240 | 23.41156 | 1753 ft | 7 kts | 191° |
| 2026-04-30 21:56 | 42.69185 | 23.41169 | 1747 ft | 9 kts | 163° |
| 2026-04-30 21:56 | 42.69116 | 23.41200 | 1746 ft | 11 kts | 161° |
| 2026-04-30 21:56 | 42.69102 | 23.41206 | 1748 ft | 0 kts | 162° |
| 2026-04-30 21:57 | 42.69101 | 23.41208 | 1748 ft | 1 kts | 157° |
| 2026-04-30 21:57 | 42.69096 | 23.41224 | 1746 ft | 3 kts | 99° |
| 2026-04-30 21:57 | 42.69103 | 23.41263 | 1751 ft | 6 kts | 73° |
| 2026-04-30 21:58 | 42.69109 | 23.41290 | 1744 ft | 0 kts | 73° |
| 2026-04-30 21:59 | 42.69110 | 23.41296 | 1745 ft | 0 kts | 73° |
| 2026-04-30 21:59 | 42.69110 | 23.41297 | 1745 ft | 0 kts | 73° |